createdAt,value
2019-02-06T00:00:38.587Z,31.17
2019-02-06T00:03:08.137Z,30.77
2019-02-06T00:05:37.284Z,32.60
2019-02-06T00:08:06.493Z,31.00
2019-02-06T00:10:35.527Z,31.83
2019-02-06T00:13:04.674Z,30.90
2019-02-06T00:15:33.754Z,32.93
2019-02-06T00:18:02.886Z,33.93
2019-02-06T00:20:32.407Z,31.00
2019-02-06T00:23:01.474Z,30.57
2019-02-06T00:25:30.461Z,31.03
2019-02-06T00:27:59.495Z,30.60
2019-02-06T00:30:28.493Z,32.23
2019-02-06T00:32:57.498Z,30.13
2019-02-06T00:35:26.987Z,31.73
2019-02-06T00:37:56.134Z,33.63
2019-02-06T00:40:25.152Z,30.40
2019-02-06T00:42:54.154Z,30.67
2019-02-06T00:45:23.302Z,32.00
2019-02-06T00:47:52.319Z,30.70
2019-02-06T00:50:21.726Z,32.53
2019-02-06T00:52:50.729Z,31.10
2019-02-06T00:55:19.937Z,32.87
2019-02-06T00:57:49.067Z,30.40
2019-02-06T01:00:21.754Z,31.10
2019-02-06T01:02:51.799Z,31.83
2019-02-06T01:05:21.495Z,34.57
2019-02-06T01:07:50.717Z,30.20
2019-02-06T01:10:20.149Z,31.77
2019-02-06T01:12:49.160Z,30.90
2019-02-06T01:15:18.243Z,32.00
2019-02-06T01:17:47.342Z,31.90
2019-02-06T01:20:17.372Z,35.50
2019-02-06T01:22:46.386Z,34.17
2019-02-06T01:25:16.074Z,33.07
2019-02-06T01:27:45.353Z,34.87
2019-02-06T01:30:17.629Z,33.77
2019-02-06T01:32:46.682Z,33.90
2019-02-06T01:35:16.191Z,34.60
2019-02-06T01:37:45.246Z,33.80
2019-02-06T01:40:16.811Z,37.47
2019-02-06T01:42:45.977Z,35.17
2019-02-06T01:45:16.605Z,33.37
2019-02-06T01:47:45.787Z,34.53
2019-02-06T01:50:16.684Z,33.63
2019-02-06T01:52:45.868Z,33.70
2019-02-06T01:55:15.234Z,31.23
2019-02-06T01:57:44.478Z,32.10
2019-02-06T02:00:15.971Z,34.77
2019-02-06T02:02:45.099Z,32.20
2019-02-06T02:05:15.731Z,33.13
2019-02-06T02:07:48.702Z,29.20
2019-02-06T02:10:18.373Z,28.33
2019-02-06T02:12:47.764Z,29.37
2019-02-06T02:15:17.167Z,29.97
2019-02-06T02:17:46.468Z,29.17
2019-02-06T02:20:17.793Z,28.32
2019-02-06T02:22:47.454Z,27.33
2019-02-06T02:25:16.588Z,29.23
2019-02-06T02:27:45.873Z,28.43
2019-02-06T02:30:18.067Z,28.03
2019-02-06T02:32:47.292Z,27.37
2019-02-06T02:35:16.346Z,28.52
2019-02-06T02:37:45.486Z,28.67
2019-02-06T02:40:14.629Z,26.57
2019-02-06T02:42:43.666Z,30.20
2019-02-06T02:45:14.378Z,28.87
2019-02-06T02:47:43.747Z,31.07
2019-02-06T02:50:13.041Z,29.90
2019-02-06T02:52:42.192Z,30.53
2019-02-06T02:55:12.276Z,30.50
2019-02-06T02:57:41.626Z,31.73
2019-02-06T03:00:14.851Z,30.67
2019-02-06T03:03:15.998Z,30.60
2019-02-06T03:05:45.170Z,29.83
2019-02-06T03:08:14.274Z,30.37
2019-02-06T03:10:43.857Z,30.83
2019-02-06T03:13:12.959Z,31.60
2019-02-06T03:15:42.190Z,31.60
2019-02-06T03:18:11.253Z,32.73
2019-02-06T03:20:40.314Z,31.20
2019-02-06T03:23:09.596Z,31.00
2019-02-06T03:25:38.905Z,33.70
2019-02-06T03:28:08.010Z,28.07
2019-02-06T03:30:37.256Z,26.83
2019-02-06T03:33:06.454Z,28.40
2019-02-06T03:35:35.639Z,30.93
2019-02-06T03:38:04.864Z,30.33
2019-02-06T03:40:33.950Z,29.97
2019-02-06T03:43:03.067Z,28.30
2019-02-06T03:45:32.495Z,28.70
2019-02-06T03:48:02.062Z,29.37
2019-02-06T03:50:31.035Z,30.17
2019-02-06T03:53:00.071Z,30.97
2019-02-06T03:55:29.226Z,30.30
2019-02-06T03:57:58.668Z,27.57
2019-02-06T04:00:27.763Z,30.07
2019-02-06T04:02:56.747Z,27.50
2019-02-06T04:05:25.755Z,30.07
2019-02-06T04:07:54.870Z,26.93
2019-02-06T04:10:23.945Z,28.10
2019-02-06T04:12:53.054Z,31.10
2019-02-06T04:15:22.092Z,27.33
2019-02-06T04:17:54.367Z,28.70
2019-02-06T04:20:21.952Z,28.13
2019-02-06T04:22:50.954Z,30.53
2019-02-06T04:25:20.073Z,27.70
2019-02-06T04:27:49.470Z,27.63
2019-02-06T04:30:21.783Z,27.63
2019-02-06T04:32:51.030Z,25.67
2019-02-06T04:35:20.112Z,27.63
2019-02-06T04:37:49.237Z,31.27
2019-02-06T04:40:21.061Z,28.47
2019-02-06T04:42:50.575Z,30.47
2019-02-06T04:45:19.922Z,29.70
2019-02-06T04:47:49.128Z,29.37
2019-02-06T04:50:18.308Z,28.93
2019-02-06T04:52:47.588Z,29.07
2019-02-06T04:55:17.030Z,27.90
2019-02-06T04:57:48.946Z,28.93
2019-02-06T05:00:20.726Z,30.03
2019-02-06T05:02:50.003Z,27.83
2019-02-06T05:05:19.216Z,27.73
2019-02-06T05:07:49.335Z,29.03
2019-02-06T05:10:19.260Z,29.97
2019-02-06T05:12:49.437Z,27.07
2019-02-06T05:15:18.485Z,28.47
2019-02-06T05:17:47.670Z,28.47
2019-02-06T05:20:28.612Z,26.40
2019-02-06T05:22:57.715Z,29.27
2019-02-06T05:25:27.196Z,29.33
2019-02-06T05:27:56.326Z,29.00
2019-02-06T05:30:25.365Z,31.60
2019-02-06T05:32:54.460Z,29.23
2019-02-06T05:35:23.556Z,31.70
2019-02-06T05:37:52.613Z,30.63
2019-02-06T05:40:21.681Z,31.90
2019-02-06T05:42:52.819Z,30.53
2019-02-06T05:45:22.020Z,33.63
2019-02-06T05:47:51.110Z,30.10
2019-02-06T05:50:20.333Z,31.90
2019-02-06T05:52:49.355Z,35.30
2019-02-06T05:55:19.093Z,33.37
2019-02-06T05:57:48.743Z,32.87
2019-02-06T06:00:25.222Z,31.47
2019-02-06T06:02:54.436Z,34.70
2019-02-06T06:05:23.630Z,36.97
2019-02-06T06:07:52.702Z,34.70
2019-02-06T06:10:21.698Z,35.47
2019-02-06T06:12:50.790Z,36.17
2019-02-06T06:15:19.896Z,36.57
2019-02-06T06:17:48.946Z,34.87
2019-02-06T06:20:18.277Z,31.33
2019-02-06T06:22:47.783Z,32.90
2019-02-06T06:25:17.578Z,35.60
2019-02-06T06:27:46.973Z,35.47
2019-02-06T06:30:19.696Z,36.10
2019-02-06T06:32:49.660Z,35.40
2019-02-06T06:35:18.897Z,34.10
2019-02-06T06:37:57.660Z,31.60
2019-02-06T06:40:20.957Z,35.07
2019-02-06T06:42:50.201Z,33.00
2019-02-06T06:45:22.899Z,34.50
2019-02-06T06:47:53.429Z,36.60
2019-02-06T06:50:23.713Z,35.50
2019-02-06T06:52:53.069Z,34.53
2019-02-06T06:55:22.845Z,33.93
2019-02-06T06:57:52.139Z,32.73
2019-02-06T07:00:23.787Z,34.50
2019-02-06T07:02:52.996Z,36.33
2019-02-06T07:05:22.122Z,35.93
2019-02-06T07:07:51.596Z,37.43
2019-02-06T07:10:21.532Z,39.13
2019-02-06T07:12:50.635Z,36.07
2019-02-06T07:15:24.901Z,38.33
2019-02-06T07:17:55.065Z,42.47
2019-02-06T07:20:24.154Z,38.80
2019-02-06T07:22:53.197Z,37.03
2019-02-06T07:25:22.665Z,37.73
2019-02-06T07:27:51.874Z,37.07
2019-02-06T07:30:27.180Z,38.33
2019-02-06T07:32:56.745Z,37.20
2019-02-06T07:35:25.875Z,36.87
2019-02-06T07:37:54.913Z,41.03
2019-02-06T07:40:25.258Z,39.00
2019-02-06T07:42:54.342Z,42.73
2019-02-06T07:45:23.509Z,40.00
2019-02-06T07:47:52.714Z,42.90
2019-02-06T07:50:28.621Z,40.13
2019-02-06T07:52:58.303Z,41.80
2019-02-06T07:55:27.453Z,40.93
2019-02-06T07:57:56.541Z,41.20
2019-02-06T08:00:25.631Z,37.77
2019-02-06T08:02:55.131Z,39.53
2019-02-06T08:05:24.170Z,40.60
2019-02-06T08:07:53.627Z,38.03
2019-02-06T08:10:25.079Z,36.70
2019-02-06T08:12:54.303Z,38.73
2019-02-06T08:15:23.472Z,38.77
2019-02-06T08:17:52.673Z,38.27
2019-02-06T08:20:21.766Z,39.90
2019-02-06T08:22:51.023Z,40.03
2019-02-06T08:25:20.309Z,34.60
2019-02-06T08:27:49.416Z,31.87
2019-02-06T08:30:24.270Z,25.70
2019-02-06T08:32:53.519Z,25.60
2019-02-06T08:35:22.854Z,28.87
2019-02-06T08:37:52.523Z,25.30
2019-02-06T08:40:22.602Z,25.05
2019-02-06T08:42:51.657Z,27.30
2019-02-06T08:45:21.172Z,31.13
2019-02-06T08:47:50.422Z,29.97
2019-02-06T08:50:19.629Z,28.90
2019-02-06T08:52:49.129Z,29.40
2019-02-06T08:55:20.407Z,30.43
2019-02-06T08:57:49.562Z,30.90
2019-02-06T09:00:21.604Z,30.63
2019-02-06T09:02:50.717Z,30.30
2019-02-06T09:05:19.826Z,28.57
2019-02-06T09:07:49.341Z,27.97
2019-02-06T09:10:20.205Z,27.30
2019-02-06T09:12:49.538Z,26.67
2019-02-06T09:15:18.792Z,25.67
2019-02-06T09:17:47.900Z,25.90
2019-02-06T09:20:19.424Z,25.00
2019-02-06T09:22:51.466Z,25.33
2019-02-06T09:25:21.182Z,26.07
2019-02-06T09:27:50.270Z,24.07
2019-02-06T09:30:21.254Z,23.33
2019-02-06T09:32:50.366Z,24.93
2019-02-06T09:35:19.505Z,23.37
2019-02-06T09:37:48.690Z,26.47
2019-02-06T09:40:19.501Z,22.57
2019-02-06T09:42:48.608Z,24.07
2019-02-06T09:45:17.785Z,24.03
2019-02-06T09:47:46.948Z,23.80
2019-02-06T09:50:19.233Z,22.43
2019-02-06T09:52:48.319Z,23.57
2019-02-06T09:55:17.529Z,22.20
2019-02-06T09:57:46.632Z,23.63
2019-02-06T10:00:18.805Z,25.13
2019-02-06T10:02:47.958Z,25.33
2019-02-06T10:05:17.034Z,25.00
2019-02-06T10:07:46.358Z,23.40
2019-02-06T10:10:19.914Z,22.53
2019-02-06T10:12:49.021Z,24.17
2019-02-06T10:15:26.962Z,21.93
2019-02-06T10:17:57.438Z,21.03
2019-02-06T10:20:31.351Z,21.73
2019-02-06T10:23:00.657Z,21.93
2019-02-06T10:25:30.178Z,22.87
2019-02-06T10:27:59.282Z,23.67
2019-02-06T10:30:37.195Z,23.53
2019-02-06T10:33:07.713Z,24.47
2019-02-06T10:35:36.748Z,26.13
2019-02-06T10:38:06.637Z,25.73
2019-02-06T10:40:36.082Z,27.30
2019-02-06T10:43:05.252Z,28.53
2019-02-06T10:45:34.472Z,28.47
2019-02-06T10:48:03.637Z,29.77
2019-02-06T10:50:34.830Z,25.20
2019-02-06T10:53:04.337Z,23.03
2019-02-06T10:55:33.580Z,22.03
2019-02-06T10:58:02.658Z,20.90
2019-02-06T11:00:40.623Z,20.70
2019-02-06T11:03:09.989Z,19.90
2019-02-06T11:05:39.114Z,19.70
2019-02-06T11:08:08.559Z,19.47
2019-02-06T11:10:37.817Z,20.53
2019-02-06T11:13:07.776Z,22.13
2019-02-06T11:15:37.215Z,25.20
2019-02-06T11:18:06.873Z,23.27
2019-02-06T11:20:36.782Z,24.40
2019-02-06T11:23:06.666Z,24.13
2019-02-06T11:25:36.932Z,24.73
2019-02-06T11:28:06.978Z,25.00
2019-02-06T11:30:36.452Z,25.67
2019-02-06T11:33:06.498Z,24.97
2019-02-06T11:35:35.527Z,26.00
2019-02-06T11:38:05.433Z,28.20
2019-02-06T11:40:34.965Z,29.10
2019-02-06T11:43:04.554Z,28.17
2019-02-06T11:45:33.854Z,29.87
2019-02-06T11:48:03.121Z,30.27
2019-02-06T11:50:35.938Z,27.73
2019-02-06T11:53:05.790Z,25.97
2019-02-06T11:55:35.335Z,26.33
2019-02-06T11:58:06.170Z,24.93
2019-02-06T12:00:48.976Z,26.27
2019-02-06T12:03:18.209Z,25.70
2019-02-06T12:05:47.411Z,28.30
2019-02-06T12:08:16.469Z,27.83
2019-02-06T12:10:45.896Z,27.33
2019-02-06T12:13:14.989Z,25.93
2019-02-06T12:15:44.050Z,28.10
2019-02-06T12:18:13.134Z,29.17
2019-02-06T12:20:42.249Z,30.10
2019-02-06T12:23:11.438Z,28.90
2019-02-06T12:25:40.681Z,28.90
2019-02-06T12:28:12.100Z,29.20
2019-02-06T12:30:41.084Z,30.80
2019-02-06T12:33:13.114Z,27.50
2019-02-06T12:35:42.237Z,28.87
2019-02-06T12:38:11.312Z,27.23
2019-02-06T12:40:40.578Z,27.23
2019-02-06T12:43:10.703Z,26.50
2019-02-06T12:45:40.017Z,27.63
2019-02-06T12:48:09.378Z,27.83
2019-02-06T12:50:38.463Z,26.17
2019-02-06T12:53:07.640Z,24.33
2019-02-06T12:55:37.706Z,25.73
2019-02-06T12:58:07.812Z,25.17
2019-02-06T13:00:38.290Z,23.90
2019-02-06T13:03:07.337Z,25.30
2019-02-06T13:05:36.579Z,25.13
2019-02-06T13:08:06.490Z,25.00
2019-02-06T13:10:35.603Z,25.53
2019-02-06T13:13:05.523Z,23.13
2019-02-06T13:15:34.945Z,23.67
2019-02-06T13:18:04.217Z,24.10
2019-02-06T13:20:33.278Z,24.87
2019-02-06T13:23:02.378Z,24.30
2019-02-06T13:25:31.637Z,22.50
2019-02-06T13:28:00.794Z,22.27
2019-02-06T13:30:31.955Z,20.80
2019-02-06T13:33:01.094Z,19.93
2019-02-06T13:35:30.228Z,19.53
2019-02-06T13:37:59.470Z,18.80
2019-02-06T13:40:28.808Z,20.80
2019-02-06T13:42:58.139Z,20.73
2019-02-06T13:45:32.601Z,20.37
2019-02-06T13:48:01.750Z,21.83
2019-02-06T13:50:31.451Z,21.50
2019-02-06T13:53:00.943Z,22.73
2019-02-06T13:55:30.344Z,21.23
2019-02-06T13:57:59.515Z,22.57
2019-02-06T14:00:31.001Z,21.03
2019-02-06T14:03:00.122Z,20.57
2019-02-06T14:05:30.026Z,20.03
2019-02-06T14:08:01.219Z,20.87
2019-02-06T14:10:30.430Z,19.37
2019-02-06T14:13:00.101Z,19.43
2019-02-06T14:15:32.593Z,21.07
2019-02-06T14:18:02.168Z,21.53
2019-02-06T14:20:31.627Z,18.87
2019-02-06T14:23:10.250Z,19.20
2019-02-06T14:26:06.173Z,19.97
2019-02-06T14:28:54.637Z,19.63
2019-02-06T14:32:15.571Z,17.43
2019-02-06T14:35:07.495Z,19.93
2019-02-06T14:38:23.801Z,18.53
2019-02-06T14:41:32.193Z,20.07
2019-02-06T14:44:54.079Z,19.87
2019-02-06T14:47:49.338Z,19.00
2019-02-06T14:50:55.188Z,18.87
2019-02-06T14:53:44.651Z,18.53
2019-02-06T14:56:48.141Z,19.37
2019-02-06T14:59:55.145Z,18.47
2019-02-06T15:03:23.650Z,19.03
2019-02-06T15:06:20.247Z,19.80
2019-02-06T15:09:10.798Z,20.60
2019-02-06T15:12:14.528Z,20.40
2019-02-06T15:14:56.782Z,17.93
2019-02-06T15:17:54.566Z,20.80
2019-02-06T15:20:39.446Z,18.80
2019-02-06T15:23:51.851Z,16.90
2019-02-06T15:27:01.702Z,18.27
2019-02-06T15:30:17.389Z,18.40
2019-02-06T15:33:33.707Z,17.00
2019-02-06T15:36:59.176Z,18.63
2019-02-06T15:40:12.965Z,15.77
2019-02-06T15:42:55.137Z,16.67
2019-02-06T15:45:57.991Z,16.53
2019-02-06T15:48:56.662Z,18.13
2019-02-06T15:51:47.772Z,18.53
2019-02-06T15:54:49.140Z,16.47
2019-02-06T15:58:05.716Z,16.77
2019-02-06T16:00:56.778Z,16.80
2019-02-06T16:04:15.469Z,17.93
2019-02-06T16:07:12.000Z,15.77
2019-02-06T16:10:26.116Z,16.93
2019-02-06T16:13:26.507Z,16.93
2019-02-06T16:16:21.587Z,18.17
2019-02-06T16:19:27.722Z,17.83
2019-02-06T16:22:23.591Z,17.77
2019-02-06T16:25:29.832Z,20.13
2019-02-06T16:28:25.052Z,17.23
2019-02-06T16:31:20.573Z,17.10
2019-02-06T16:34:22.375Z,21.10
2019-02-06T16:37:21.743Z,18.87
2019-02-06T16:40:32.413Z,19.40
2019-02-06T16:43:45.840Z,19.70
2019-02-06T16:47:18.922Z,18.30
2019-02-06T16:50:14.467Z,19.17
2019-02-06T16:53:19.470Z,19.80
2019-02-06T16:56:31.570Z,19.17
2019-02-06T16:59:42.849Z,19.53
2019-02-06T17:03:08.240Z,19.63
2019-02-06T17:05:44.057Z,21.10
2019-02-06T17:09:23.071Z,19.67
2019-02-06T17:12:19.580Z,19.10
2019-02-06T17:15:38.562Z,20.57
2019-02-06T17:18:42.317Z,19.67
2019-02-06T17:21:45.140Z,20.73
2019-02-06T17:25:10.493Z,20.70
2019-02-06T17:28:13.864Z,21.93
2019-02-06T17:31:30.464Z,18.17
2019-02-06T17:34:46.628Z,19.70
2019-02-06T17:38:08.830Z,20.53
2019-02-06T17:41:34.311Z,21.00
2019-02-06T17:44:49.501Z,21.43
2019-02-06T17:48:02.671Z,19.87
2019-02-06T17:50:56.153Z,21.20
2019-02-06T17:53:56.145Z,22.10
2019-02-06T17:56:25.275Z,19.73
2019-02-06T17:58:54.753Z,18.83
2019-02-06T18:01:53.284Z,17.27
2019-02-06T18:04:27.860Z,15.73
2019-02-06T18:06:57.380Z,16.50
2019-02-06T18:09:26.454Z,19.93
2019-02-06T18:11:56.061Z,17.23
2019-02-06T18:14:25.206Z,19.13
2019-02-06T18:16:54.347Z,20.33
2019-02-06T18:19:23.546Z,20.00
2019-02-06T18:21:54.299Z,19.40
2019-02-06T18:24:23.494Z,17.73
2019-02-06T18:26:53.662Z,16.27
2019-02-06T18:29:24.158Z,16.13
2019-02-06T18:31:53.215Z,15.37
2019-02-06T18:34:22.446Z,16.60
2019-02-06T18:36:51.627Z,17.17
2019-02-06T18:39:21.195Z,16.20
2019-02-06T18:41:50.434Z,15.17
2019-02-06T18:44:19.637Z,15.00
2019-02-06T18:46:51.681Z,18.50
2019-02-06T18:49:20.889Z,17.50
2019-02-06T18:51:50.305Z,16.10
2019-02-06T18:54:20.605Z,18.80
2019-02-06T18:56:50.227Z,16.17
2019-02-06T18:59:19.486Z,16.20
2019-02-06T19:01:48.713Z,19.30
2019-02-06T19:04:19.603Z,19.03
2019-02-06T19:06:48.987Z,16.67
2019-02-06T19:09:18.226Z,17.20
2019-02-06T19:11:48.569Z,18.63
2019-02-06T19:14:18.130Z,17.27
2019-02-06T19:16:47.391Z,20.33
2019-02-06T19:19:25.118Z,19.60
2019-02-06T19:21:47.614Z,17.87
2019-02-06T19:24:17.886Z,18.93
2019-02-06T19:26:47.058Z,19.00
2019-02-06T19:29:16.980Z,18.40
2019-02-06T19:31:46.469Z,19.27
2019-02-06T19:34:15.661Z,20.00
2019-02-06T19:36:44.814Z,19.00
2019-02-06T19:39:14.053Z,18.43
2019-02-06T19:41:43.252Z,18.47
2019-02-06T19:44:12.387Z,19.17
2019-02-06T19:46:41.499Z,18.00
2019-02-06T19:49:11.509Z,18.10
2019-02-06T19:51:40.562Z,16.50
2019-02-06T19:54:10.896Z,18.00
2019-02-06T19:56:40.289Z,18.97
2019-02-06T19:59:09.521Z,18.97
2019-02-06T20:01:42.065Z,18.60
2019-02-06T20:04:12.513Z,19.07
2019-02-06T20:06:41.643Z,19.90
2019-02-06T20:09:12.071Z,17.03
2019-02-06T20:11:41.219Z,18.73
2019-02-06T20:14:10.468Z,17.23
2019-02-06T20:16:39.630Z,17.57
2019-02-06T20:19:08.758Z,17.03
2019-02-06T20:21:37.922Z,17.80
2019-02-06T20:24:07.579Z,17.53
2019-02-06T20:26:36.707Z,18.50
2019-02-06T20:29:05.990Z,16.47
2019-02-06T20:31:35.218Z,15.73
2019-02-06T20:34:04.473Z,16.77
2019-02-06T20:36:35.722Z,16.87
2019-02-06T20:39:08.454Z,16.43
2019-02-06T20:41:38.593Z,15.67
2019-02-06T20:44:07.667Z,14.47
2019-02-06T20:46:36.794Z,15.70
2019-02-06T20:49:06.017Z,15.53
2019-02-06T20:51:35.280Z,17.47
2019-02-06T20:54:05.040Z,17.70
2019-02-06T20:56:34.258Z,17.57
2019-02-06T20:59:03.504Z,17.20
2019-02-06T21:01:32.785Z,18.17
2019-02-06T21:04:02.105Z,20.47
2019-02-06T21:06:32.858Z,20.30
2019-02-06T21:09:05.116Z,21.20
2019-02-06T21:11:34.246Z,19.73
2019-02-06T21:14:05.805Z,20.97
2019-02-06T21:16:34.961Z,21.17
2019-02-06T21:19:04.479Z,19.07
2019-02-06T21:21:33.654Z,20.67
2019-02-06T21:24:02.931Z,22.57
2019-02-06T21:26:32.115Z,20.30
2019-02-06T21:29:02.361Z,22.03
2019-02-06T21:31:31.726Z,19.07
2019-02-06T21:34:01.051Z,19.73
2019-02-06T21:36:30.215Z,19.30
2019-02-06T21:39:00.005Z,19.83
2019-02-06T21:41:29.620Z,21.63
2019-02-06T21:43:59.006Z,21.43
2019-02-06T21:46:28.169Z,18.90
2019-02-06T21:48:57.400Z,21.80
2019-02-06T21:51:26.610Z,23.00
2019-02-06T21:53:55.733Z,22.97
2019-02-06T21:56:31.010Z,20.37
2019-02-06T21:59:02.098Z,22.87
2019-02-06T22:01:31.823Z,23.10
2019-02-06T22:04:01.010Z,24.00
2019-02-06T22:06:30.074Z,21.50
2019-02-06T22:08:59.429Z,20.87
2019-02-06T22:11:28.647Z,20.87
2019-02-06T22:13:57.816Z,20.43
2019-02-06T22:16:27.081Z,20.50
2019-02-06T22:18:56.320Z,21.00
2019-02-06T22:21:25.362Z,19.13
2019-02-06T22:23:55.151Z,19.83
2019-02-06T22:26:24.280Z,21.33
2019-02-06T22:28:53.442Z,20.90
2019-02-06T22:31:22.606Z,19.80
2019-02-06T22:33:51.775Z,19.13
2019-02-06T22:36:20.899Z,22.77
2019-02-06T22:38:50.402Z,21.03
2019-02-06T22:41:20.537Z,20.23
2019-02-06T22:43:49.556Z,19.10
2019-02-06T22:46:18.721Z,18.53
2019-02-06T22:48:47.802Z,19.53
2019-02-06T22:51:16.903Z,17.23
2019-02-06T22:53:46.352Z,19.10
2019-02-06T22:56:15.360Z,18.60
2019-02-06T22:58:44.426Z,22.23
2019-02-06T23:01:24.656Z,22.20
2019-02-06T23:03:53.697Z,19.20
2019-02-06T23:06:23.462Z,21.73
2019-02-06T23:08:52.561Z,19.57
2019-02-06T23:11:21.642Z,21.70
2019-02-06T23:13:50.783Z,20.53
2019-02-06T23:16:19.938Z,19.13
2019-02-06T23:18:49.095Z,20.73
2019-02-06T23:21:20.102Z,17.77
2019-02-06T23:23:49.219Z,20.60
2019-02-06T23:26:18.319Z,18.43
2019-02-06T23:28:47.380Z,19.10
2019-02-06T23:31:16.367Z,19.77
2019-02-06T23:33:45.528Z,17.57
2019-02-06T23:36:14.955Z,17.67
2019-02-06T23:38:44.002Z,16.87
2019-02-06T23:41:13.023Z,17.43
2019-02-06T23:43:41.995Z,17.87
2019-02-06T23:46:11.113Z,16.93
2019-02-06T23:48:40.150Z,17.17
2019-02-06T23:51:09.602Z,16.90
2019-02-06T23:53:38.594Z,15.03
2019-02-06T23:56:07.688Z,17.47
2019-02-06T23:58:36.760Z,16.77
